createdAt,value
2023-05-07T00:01:42.688Z,5.10
2023-05-07T00:04:46.399Z,5.20
2023-05-07T00:07:49.826Z,5.10
2023-05-07T00:10:54.607Z,5.10
2023-05-07T00:13:58.064Z,5.10
2023-05-07T00:17:01.313Z,5.10
2023-05-07T00:20:05.851Z,5.10
2023-05-07T00:23:09.033Z,5.10
2023-05-07T00:26:13.609Z,5.10
2023-05-07T00:29:17.753Z,5.00
2023-05-07T00:32:20.988Z,5.10
2023-05-07T00:35:24.451Z,5.10
2023-05-07T00:38:27.683Z,5.10
2023-05-07T00:41:32.645Z,5.10
2023-05-07T00:44:35.951Z,5.00
2023-05-07T00:47:39.201Z,5.10
2023-05-07T00:50:42.511Z,5.00
2023-05-07T00:53:46.302Z,5.00
2023-05-07T00:56:51.310Z,5.00
2023-05-07T00:59:54.891Z,5.00
2023-05-07T01:02:58.574Z,5.00
2023-05-07T01:06:03.578Z,5.00
2023-05-07T01:09:08.368Z,4.90
2023-05-07T01:12:13.352Z,5.00
2023-05-07T01:15:16.971Z,5.00
2023-05-07T01:18:20.498Z,5.00
2023-05-07T01:21:27.657Z,5.00
2023-05-07T01:24:36.909Z,4.90
2023-05-07T01:27:41.183Z,4.90
2023-05-07T01:30:48.704Z,4.90
2023-05-07T01:33:54.231Z,4.90
2023-05-07T01:36:59.042Z,4.90
2023-05-07T01:40:04.184Z,4.90
2023-05-07T01:43:07.974Z,4.90
2023-05-07T01:46:13.989Z,4.90
2023-05-07T01:49:17.667Z,4.90
2023-05-07T01:52:20.920Z,4.90
2023-05-07T01:55:25.780Z,4.90
2023-05-07T01:58:29.041Z,4.80
2023-05-07T02:01:32.212Z,4.80
2023-05-07T02:04:36.149Z,4.90
2023-05-07T02:07:40.965Z,4.90
2023-05-07T02:10:46.352Z,4.80
2023-05-07T02:13:49.537Z,4.90
2023-05-07T02:16:53.184Z,4.80
2023-05-07T02:19:56.550Z,4.80
2023-05-07T02:23:00.072Z,4.80
2023-05-07T02:26:07.418Z,4.80
2023-05-07T02:29:10.807Z,4.80
2023-05-07T02:32:15.515Z,4.80
2023-05-07T02:35:19.089Z,4.80
2023-05-07T02:38:22.345Z,4.70
2023-05-07T02:41:26.944Z,4.70
2023-05-07T02:44:32.345Z,4.70
2023-05-07T02:47:35.751Z,4.70
2023-05-07T02:50:39.749Z,4.70
2023-05-07T02:53:43.046Z,4.70
2023-05-07T02:56:47.739Z,4.70
2023-05-07T02:59:51.779Z,4.70
2023-05-07T03:02:57.468Z,4.70
2023-05-07T03:06:01.042Z,4.70
2023-05-07T03:09:04.838Z,4.70
2023-05-07T03:12:09.844Z,4.70
2023-05-07T03:15:13.683Z,4.70
2023-05-07T03:18:17.119Z,4.70
2023-05-07T03:21:20.708Z,4.60
2023-05-07T03:24:23.926Z,4.70
2023-05-07T03:27:28.442Z,4.60
2023-05-07T03:30:31.744Z,4.60
2023-05-07T03:33:36.409Z,4.60
2023-05-07T03:36:39.786Z,4.60
2023-05-07T03:39:46.216Z,4.50
2023-05-07T03:42:50.912Z,4.60
2023-05-07T03:45:56.217Z,4.60
2023-05-07T03:49:02.693Z,4.60
2023-05-07T03:52:06.980Z,4.60
2023-05-07T03:55:11.757Z,4.70
2023-05-07T03:58:19.433Z,4.70
2023-05-07T04:01:23.564Z,4.60
2023-05-07T04:04:28.062Z,4.60
2023-05-07T04:07:31.333Z,4.60
2023-05-07T04:10:34.971Z,4.60
2023-05-07T04:13:43.720Z,4.60
2023-05-07T04:16:47.053Z,4.70
2023-05-07T04:19:51.279Z,4.60
2023-05-07T04:22:56.524Z,4.60
2023-05-07T04:26:01.898Z,4.50
2023-05-07T04:29:12.478Z,4.50
2023-05-07T04:32:16.102Z,4.60
2023-05-07T04:35:19.597Z,4.60
2023-05-07T04:38:24.497Z,4.60
2023-05-07T04:41:30.042Z,4.50
2023-05-07T04:44:35.349Z,4.60
2023-05-07T04:47:38.690Z,4.50
2023-05-07T04:50:42.305Z,4.50
2023-05-07T04:53:46.223Z,4.60
2023-05-07T04:56:49.931Z,4.60
2023-05-07T04:59:54.739Z,4.50
2023-05-07T05:02:58.138Z,4.60
2023-05-07T05:06:02.129Z,4.60
2023-05-07T05:09:09.266Z,4.60
2023-05-07T05:12:13.321Z,4.60
2023-05-07T05:15:17.978Z,4.60
2023-05-07T05:18:21.425Z,4.60
2023-05-07T05:21:25.192Z,4.60
2023-05-07T05:24:33.355Z,4.50
2023-05-07T05:27:38.112Z,4.50
2023-05-07T05:30:43.779Z,4.50
2023-05-07T05:33:47.236Z,4.50
2023-05-07T05:36:50.613Z,4.60
2023-05-07T05:39:55.641Z,4.60
2023-05-07T05:42:59.128Z,4.50
2023-05-07T05:46:05.424Z,4.50
2023-05-07T05:49:09.588Z,4.50
2023-05-07T05:52:15.189Z,4.50
2023-05-07T05:55:18.746Z,4.60
2023-05-07T05:58:22.759Z,4.70
2023-05-07T06:01:33.342Z,4.70
2023-05-07T06:04:39.220Z,4.70
2023-05-07T06:07:42.772Z,4.70
2023-05-07T06:10:46.382Z,4.70
2023-05-07T06:13:50.103Z,4.80
2023-05-07T06:16:55.492Z,4.80
2023-05-07T06:19:58.958Z,4.70
2023-05-07T06:23:02.390Z,4.70
2023-05-07T06:26:07.143Z,4.70
2023-05-07T06:29:18.680Z,4.80
2023-05-07T06:32:24.041Z,4.80
2023-05-07T06:35:28.635Z,4.90
2023-05-07T06:38:32.514Z,4.90
2023-05-07T06:41:39.192Z,4.90
2023-05-07T06:44:53.985Z,5.00
2023-05-07T06:47:58.597Z,5.00
2023-05-07T06:51:04.617Z,5.00
2023-05-07T06:54:20.166Z,5.00
2023-05-07T06:57:24.552Z,5.10
2023-05-07T07:00:28.962Z,5.10
2023-05-07T07:03:34.839Z,5.10
2023-05-07T07:06:38.650Z,5.10
2023-05-07T07:09:46.453Z,5.10
2023-05-07T07:12:53.497Z,5.10
2023-05-07T07:15:57.707Z,5.30
2023-05-07T07:19:02.869Z,5.30
2023-05-07T07:22:06.391Z,5.30
2023-05-07T07:25:12.260Z,5.30
2023-05-07T07:28:16.585Z,5.20
2023-05-07T07:31:20.671Z,5.20
2023-05-07T07:34:28.422Z,5.20
2023-05-07T07:37:32.549Z,5.20
2023-05-07T07:40:37.437Z,5.10
2023-05-07T07:43:42.930Z,5.20
2023-05-07T07:46:46.600Z,5.30
2023-05-07T07:49:51.871Z,5.40
2023-05-07T07:52:55.888Z,5.50
2023-05-07T07:55:59.691Z,5.50
2023-05-07T07:59:06.159Z,5.60
2023-05-07T08:02:11.091Z,5.70
2023-05-07T08:05:16.360Z,5.70
2023-05-07T08:08:20.539Z,5.70
2023-05-07T08:11:24.594Z,5.80
2023-05-07T08:14:29.825Z,5.80
2023-05-07T08:17:33.945Z,5.70
2023-05-07T08:20:40.674Z,5.80
2023-05-07T08:23:46.796Z,5.70
2023-05-07T08:26:50.626Z,5.80
2023-05-07T08:29:54.621Z,5.70
2023-05-07T08:32:58.815Z,5.80
2023-05-07T08:36:04.672Z,5.70
2023-05-07T08:39:07.994Z,5.70
2023-05-07T08:42:13.584Z,5.70
2023-05-07T08:45:18.147Z,5.70
2023-05-07T08:48:25.728Z,5.80
2023-05-07T08:51:37.728Z,5.80
2023-05-07T08:54:43.099Z,5.90
2023-05-07T08:57:47.952Z,5.90
2023-05-07T09:00:56.043Z,6.00
2023-05-07T09:04:00.591Z,6.00
2023-05-07T09:07:07.744Z,6.00
2023-05-07T09:10:17.181Z,6.00
2023-05-07T09:13:23.449Z,6.00
2023-05-07T09:16:28.049Z,6.00
2023-05-07T09:19:32.822Z,5.90
2023-05-07T09:22:41.364Z,6.00
2023-05-07T09:25:49.047Z,5.90
2023-05-07T09:28:59.132Z,5.80
2023-05-07T09:32:04.443Z,5.90
2023-05-07T09:35:17.158Z,5.80
2023-05-07T09:38:28.000Z,5.80
2023-05-07T09:41:35.557Z,5.90
2023-05-07T09:44:51.329Z,5.70
2023-05-07T09:48:00.354Z,5.70
2023-05-07T09:51:07.425Z,5.80
2023-05-07T09:54:13.573Z,5.80
2023-05-07T09:57:22.678Z,6.00
2023-05-07T10:00:31.224Z,6.10
2023-05-07T10:03:44.574Z,6.20
2023-05-07T10:06:49.213Z,6.30
2023-05-07T10:09:55.296Z,6.40
2023-05-07T10:13:11.169Z,6.50
2023-05-07T10:16:18.049Z,6.40
2023-05-07T10:19:27.074Z,6.30
2023-05-07T10:22:39.530Z,6.20
2023-05-07T10:25:45.184Z,6.20
2023-05-07T10:29:00.957Z,6.20
2023-05-07T10:32:30.806Z,6.20
2023-05-07T10:35:40.356Z,6.40
2023-05-07T10:38:44.210Z,6.30
2023-05-07T10:41:49.503Z,6.30
2023-05-07T10:44:53.314Z,6.40
2023-05-07T10:48:25.058Z,6.40
2023-05-07T10:51:36.770Z,6.30
2023-05-07T10:55:22.826Z,6.40
2023-05-07T10:59:42.109Z,6.30
2023-05-07T11:03:10.324Z,6.60
2023-05-07T11:06:19.519Z,6.70
2023-05-07T11:10:05.097Z,6.90
2023-05-07T11:13:46.390Z,6.90
2023-05-07T11:17:06.357Z,6.80
2023-05-07T11:20:11.867Z,6.80
2023-05-07T11:24:01.491Z,6.90
2023-05-07T11:27:11.850Z,6.80
2023-05-07T11:30:20.826Z,6.70
2023-05-07T11:33:28.012Z,6.90
2023-05-07T11:36:35.497Z,6.80
2023-05-07T11:39:41.151Z,6.80
2023-05-07T11:42:44.731Z,6.70
2023-05-07T11:45:48.253Z,6.70
2023-05-07T11:48:53.244Z,6.70
2023-05-07T11:51:56.783Z,6.50
2023-05-07T11:55:02.645Z,6.50
2023-05-07T11:58:06.784Z,6.50
2023-05-07T12:01:12.844Z,6.60
2023-05-07T12:04:22.686Z,6.60
2023-05-07T12:07:26.935Z,6.60
2023-05-07T12:10:30.311Z,6.60
2023-05-07T12:13:33.603Z,6.70
2023-05-07T12:16:37.068Z,6.60
2023-05-07T12:19:45.290Z,6.60
2023-05-07T12:22:50.572Z,6.50
2023-05-07T12:25:54.294Z,6.50
2023-05-07T12:28:59.703Z,6.60
2023-05-07T12:32:04.705Z,6.60
2023-05-07T12:35:12.396Z,6.50
2023-05-07T12:38:18.318Z,6.60
2023-05-07T12:41:26.784Z,6.70
2023-05-07T12:44:33.123Z,6.90
2023-05-07T12:47:37.659Z,7.00
2023-05-07T12:50:42.916Z,6.80
2023-05-07T12:53:47.688Z,6.70
2023-05-07T12:56:51.841Z,6.70
2023-05-07T13:00:00.697Z,6.90
2023-05-07T13:03:04.141Z,6.90
2023-05-07T13:06:11.478Z,7.00
2023-05-07T13:09:14.989Z,6.70
2023-05-07T13:12:18.358Z,6.80
2023-05-07T13:15:22.697Z,6.70
2023-05-07T13:18:27.608Z,6.60
2023-05-07T13:21:33.005Z,6.80
2023-05-07T13:24:36.749Z,6.80
2023-05-07T13:27:40.771Z,6.70
2023-05-07T13:30:44.471Z,6.70
2023-05-07T13:33:51.154Z,6.60
2023-05-07T13:36:56.268Z,6.70
2023-05-07T13:40:00.314Z,6.70
2023-05-07T13:43:04.084Z,6.50
2023-05-07T13:46:08.777Z,6.60
2023-05-07T13:49:13.938Z,6.60
2023-05-07T13:52:19.076Z,6.70
2023-05-07T13:55:24.032Z,6.80
2023-05-07T13:58:27.637Z,6.80
2023-05-07T14:01:31.454Z,6.90
2023-05-07T14:04:35.151Z,6.90
2023-05-07T14:07:40.104Z,6.80
2023-05-07T14:10:43.965Z,6.80
2023-05-07T14:13:48.696Z,6.90
2023-05-07T14:16:52.689Z,6.90
2023-05-07T14:19:57.072Z,6.90
2023-05-07T14:23:03.590Z,6.90
2023-05-07T14:26:08.515Z,6.80
2023-05-07T14:29:12.696Z,6.80
2023-05-07T14:32:16.480Z,7.00
2023-05-07T14:35:20.158Z,7.10
2023-05-07T14:38:24.969Z,7.20
2023-05-07T14:41:28.525Z,7.10
2023-05-07T14:44:32.377Z,7.20
2023-05-07T14:47:36.451Z,7.10
2023-05-07T14:50:41.400Z,7.20
2023-05-07T14:53:49.218Z,7.10
2023-05-07T14:56:56.614Z,7.10
2023-05-07T15:00:02.387Z,7.00
2023-05-07T15:03:10.436Z,6.90
2023-05-07T15:06:15.852Z,6.80
2023-05-07T15:09:32.670Z,6.90
2023-05-07T15:12:41.462Z,7.10
2023-05-07T15:15:47.712Z,7.00
2023-05-07T15:18:54.933Z,7.20
2023-05-07T15:22:03.996Z,7.10
2023-05-07T15:25:13.406Z,7.10
2023-05-07T15:28:17.363Z,7.00
2023-05-07T15:31:21.782Z,7.00
2023-05-07T15:34:26.150Z,6.90
2023-05-07T15:37:29.691Z,6.80
2023-05-07T15:40:36.233Z,6.60
2023-05-07T15:43:46.580Z,6.70
2023-05-07T15:46:49.937Z,6.70
2023-05-07T15:49:53.887Z,6.80
2023-05-07T15:52:58.313Z,6.90
2023-05-07T15:56:03.944Z,7.20
2023-05-07T15:59:07.680Z,7.30
2023-05-07T16:02:19.241Z,7.30
2023-05-07T16:05:22.943Z,7.30
2023-05-07T16:08:26.885Z,7.00
2023-05-07T16:11:38.078Z,6.90
2023-05-07T16:14:43.893Z,6.90
2023-05-07T16:18:04.644Z,6.80
2023-05-07T16:21:18.293Z,6.80
2023-05-07T16:24:22.520Z,6.90
2023-05-07T16:27:27.660Z,6.80
2023-05-07T16:30:31.328Z,6.80
2023-05-07T16:33:35.230Z,6.50
2023-05-07T16:36:38.757Z,6.60
2023-05-07T16:39:42.360Z,6.50
2023-05-07T16:42:48.259Z,6.50
2023-05-07T16:45:55.101Z,6.50
2023-05-07T16:48:58.983Z,6.50
2023-05-07T16:52:02.933Z,6.50
2023-05-07T16:55:07.418Z,6.50
2023-05-07T16:58:13.960Z,6.50
2023-05-07T17:01:18.992Z,6.50
2023-05-07T17:04:22.726Z,6.40
2023-05-07T17:07:28.300Z,6.40
2023-05-07T17:10:31.757Z,6.30
2023-05-07T17:13:36.703Z,6.20
2023-05-07T17:16:44.438Z,6.20
2023-05-07T17:19:50.728Z,6.20
2023-05-07T17:22:54.502Z,6.10
2023-05-07T17:25:58.079Z,6.00
2023-05-07T17:29:31.772Z,6.10
2023-05-07T17:32:37.218Z,6.00
2023-05-07T17:35:42.154Z,6.00
2023-05-07T17:38:48.580Z,6.00
2023-05-07T17:42:02.156Z,6.00
2023-05-07T17:45:38.106Z,6.00
2023-05-07T18:13:16.812Z,5.80
2023-05-07T18:16:20.653Z,5.80
2023-05-07T18:19:26.973Z,5.80
2023-05-07T18:22:31.384Z,5.70
2023-05-07T18:25:35.781Z,5.80
2023-05-07T18:28:43.747Z,5.80
2023-05-07T18:31:56.259Z,5.70
2023-05-07T18:35:06.630Z,5.70
2023-05-07T18:38:17.858Z,5.70
2023-05-07T18:41:28.426Z,5.70
2023-05-07T18:44:37.440Z,5.60
2023-05-07T18:47:41.753Z,5.60
2023-05-07T18:50:46.221Z,5.60
2023-05-07T18:53:49.775Z,5.60
2023-05-07T18:57:00.577Z,5.70
2023-05-07T19:00:09.875Z,5.60
2023-05-07T19:03:15.507Z,5.70
2023-05-07T19:06:21.645Z,5.60
2023-05-07T19:09:32.040Z,5.50
2023-05-07T19:12:38.072Z,5.40
2023-05-07T19:15:45.274Z,5.20
2023-05-07T19:18:51.607Z,5.10
2023-05-07T19:21:56.733Z,5.10
2023-05-07T19:25:01.090Z,5.10
2023-05-07T19:28:06.145Z,5.10
2023-05-07T19:31:11.380Z,5.00
2023-05-07T19:34:15.012Z,4.90
2023-05-07T19:37:20.279Z,4.80
2023-05-07T19:40:25.135Z,4.80
2023-05-07T19:43:31.382Z,4.90
2023-05-07T19:46:40.597Z,4.90
2023-05-07T19:49:45.396Z,4.90
2023-05-07T19:52:49.264Z,4.90
2023-05-07T19:56:03.735Z,4.90
2023-05-07T19:59:07.278Z,4.90
2023-05-07T20:02:13.340Z,4.80
2023-05-07T20:05:17.617Z,4.80
2023-05-07T20:08:21.503Z,4.70
2023-05-07T20:11:25.205Z,4.50
2023-05-07T20:14:30.261Z,4.40
2023-05-07T20:17:35.546Z,4.20
2023-05-07T20:20:38.922Z,4.10
2023-05-07T20:23:42.427Z,3.90
2023-05-07T20:26:46.870Z,3.90
2023-05-07T20:29:51.048Z,3.70
2023-05-07T20:32:56.307Z,3.60
2023-05-07T20:36:00.212Z,3.50
2023-05-07T20:39:04.298Z,3.40
2023-05-07T20:42:07.909Z,3.30
2023-05-07T20:45:13.022Z,3.20
2023-05-07T20:48:19.189Z,3.10
2023-05-07T20:51:22.665Z,3.00
2023-05-07T20:54:28.182Z,2.90
2023-05-07T20:57:31.564Z,2.80
2023-05-07T21:00:34.866Z,2.70
2023-05-07T21:03:41.967Z,2.60
2023-05-07T21:06:45.270Z,2.60
2023-05-07T21:09:48.514Z,2.50
2023-05-07T21:12:52.366Z,2.40
2023-05-07T21:15:55.675Z,2.30
2023-05-07T21:19:00.489Z,2.20
2023-05-07T21:22:03.939Z,2.10
2023-05-07T21:25:07.648Z,2.00
2023-05-07T21:28:11.327Z,1.90
2023-05-07T21:31:14.624Z,1.90
2023-05-07T21:34:19.482Z,1.90
2023-05-07T21:37:22.812Z,1.80
2023-05-07T21:40:26.148Z,1.70
2023-05-07T21:43:29.503Z,1.70
2023-05-07T21:46:32.785Z,1.60
2023-05-07T21:49:37.555Z,1.60
2023-05-07T21:52:41.003Z,1.50
2023-05-07T21:55:44.385Z,1.50
2023-05-07T21:58:48.556Z,1.50
2023-05-07T22:01:52.225Z,1.50
2023-05-07T22:04:56.940Z,1.60
2023-05-07T22:08:00.152Z,1.50
2023-05-07T22:11:03.866Z,1.50
2023-05-07T22:14:07.282Z,1.60
2023-05-07T22:17:10.489Z,1.80
2023-05-07T22:20:15.929Z,2.00
2023-05-07T22:23:19.284Z,2.20
2023-05-07T22:26:22.865Z,2.60
2023-05-07T22:29:26.088Z,2.60
2023-05-07T22:32:29.278Z,2.70
2023-05-07T22:35:33.872Z,2.80
2023-05-07T22:38:37.005Z,2.90
2023-05-07T22:41:40.721Z,2.90
2023-05-07T22:44:44.304Z,3.00
2023-05-07T22:47:47.648Z,3.00
2023-05-07T22:50:53.137Z,3.00
2023-05-07T22:53:56.429Z,2.90
2023-05-07T22:57:00.459Z,2.80
2023-05-07T23:00:03.913Z,2.70
2023-05-07T23:03:07.224Z,2.50
2023-05-07T23:06:12.656Z,2.50
2023-05-07T23:09:15.984Z,2.40
2023-05-07T23:12:19.174Z,2.30
2023-05-07T23:15:22.618Z,2.20
2023-05-07T23:18:27.866Z,2.10
2023-05-07T23:21:32.519Z,2.00
2023-05-07T23:24:35.735Z,2.00
2023-05-07T23:27:38.997Z,2.00
2023-05-07T23:30:42.208Z,1.90
2023-05-07T23:33:45.445Z,1.80
2023-05-07T23:36:50.118Z,1.70
2023-05-07T23:39:56.841Z,1.80
2023-05-07T23:43:00.040Z,1.70
2023-05-07T23:46:03.221Z,1.70
2023-05-07T23:49:06.536Z,1.70
2023-05-07T23:52:11.114Z,1.70
2023-05-07T23:55:16.602Z,1.80
2023-05-07T23:58:19.972Z,1.80
